Time;durP1;ratioP1;P1;durP2;ratioP2;P2;SDS_P1;SDS_P2;PMS_P1;PMS_P2;Temp;Humidity;BMP_temperature;BMP_pressure;BME280_temperature;BME280_humidity;BME280_pressure;Samples;Min_cycle;Max_cycle;Signal;HPM_P1;HPM_P2
2022/07/08 00:00:54;;;;;;;6.10;4.20;;;;;;;18.16;67.71;96428.28;5093299;28;20052;-61
2022/07/08 00:03:21;;;;;;;8.35;4.30;;;;;;;18.11;67.65;96432.16;5093338;28;20051;-61
2022/07/08 00:05:48;;;;;;;4.80;4.22;;;;;;;18.15;67.57;96426.56;5093195;28;20486;-62
2022/07/08 00:08:15;;;;;;;5.28;3.72;;;;;;;18.24;67.30;96426.88;5093146;28;20044;-62
2022/07/08 00:10:43;;;;;;;4.30;3.90;;;;;;;18.31;66.97;96430.78;5093183;28;20048;-62
2022/07/08 00:13:11;;;;;;;4.82;4.13;;;;;;;18.42;66.92;96425.53;5093232;28;20040;-62
2022/07/08 00:15:38;;;;;;;4.72;4.20;;;;;;;18.44;66.74;96425.44;5093287;28;20040;-62
2022/07/08 00:18:06;;;;;;;4.35;3.85;;;;;;;18.38;66.72;96410.84;5093136;28;20131;-62
2022/07/08 00:20:33;;;;;;;8.68;4.20;;;;;;;18.43;66.74;96419.28;5092929;28;20084;-62
2022/07/08 00:23:00;;;;;;;6.15;4.28;;;;;;;18.51;66.62;96412.63;5093063;28;20461;-62
2022/07/08 00:25:27;;;;;;;6.63;4.10;;;;;;;18.54;66.53;96412.34;5093022;28;20086;-62
2022/07/08 00:27:54;;;;;;;4.72;3.95;;;;;;;18.55;66.56;96414.06;5092991;28;20071;-62
2022/07/08 00:30:22;;;;;;;4.63;4.22;;;;;;;18.54;66.28;96409.72;5092931;28;20044;-62
2022/07/08 00:32:49;;;;;;;5.60;3.85;;;;;;;18.49;66.46;96414.50;5092932;28;20047;-62
2022/07/08 00:35:16;;;;;;;4.50;4.10;;;;;;;18.44;66.62;96412.19;5092898;28;20044;-62
2022/07/08 00:37:43;;;;;;;4.40;3.58;;;;;;;18.40;66.71;96411.59;5093000;28;20048;-62
2022/07/08 00:40:12;;;;;;;4.43;4.00;;;;;;;18.29;66.70;96406.19;5093016;28;20127;-61
2022/07/08 00:42:39;;;;;;;5.57;4.20;;;;;;;18.23;66.99;96409.28;5092954;28;20051;-62
2022/07/08 00:45:07;;;;;;;4.55;3.75;;;;;;;18.14;66.80;96400.19;5092851;28;20052;-62
2022/07/08 00:47:35;;;;;;;8.55;4.43;;;;;;;18.04;67.06;96398.19;5093019;28;20052;-62
2022/07/08 00:50:03;;;;;;;5.05;4.65;;;;;;;17.94;67.16;96392.69;5092985;28;20140;-62
2022/07/08 00:52:30;;;;;;;4.90;4.30;;;;;;;17.83;67.44;96395.25;5092820;28;20052;-62
2022/07/08 00:54:58;;;;;;;5.93;4.53;;;;;;;17.71;67.72;96396.94;5092953;28;20044;-61
2022/07/08 00:57:26;;;;;;;5.90;4.53;;;;;;;17.54;68.11;96398.09;5092778;28;20560;-61
2022/07/08 00:59:54;;;;;;;5.00;4.53;;;;;;;17.37;68.55;96391.34;5092768;28;20079;-62
2022/07/08 01:02:21;;;;;;;5.32;4.63;;;;;;;17.24;68.59;96391.31;5092793;28;20052;-62
2022/07/08 01:04:51;;;;;;;4.93;4.53;;;;;;;17.13;69.26;96394.69;5092850;28;20134;-61
2022/07/08 01:07:19;;;;;;;5.20;4.60;;;;;;;17.04;69.42;96393.47;5095920;28;20056;-61
2022/07/08 01:09:46;;;;;;;4.90;4.40;;;;;;;17.04;69.84;96388.19;5096326;28;20359;-61
2022/07/08 01:12:13;;;;;;;4.97;4.57;;;;;;;16.97;69.81;96384.25;5096307;28;20055;-61
2022/07/08 01:14:41;;;;;;;6.95;4.63;;;;;;;16.84;70.51;96385.06;5096337;28;20094;-61
2022/07/08 01:17:09;;;;;;;4.90;4.47;;;;;;;16.87;70.85;96384.88;5096163;28;20452;-61
2022/07/08 01:19:37;;;;;;;4.85;4.30;;;;;;;16.90;70.70;96378.53;5095990;28;20210;-61
2022/07/08 01:22:06;;;;;;;5.40;4.90;;;;;;;16.98;70.73;96383.31;5096231;28;20052;-62
2022/07/08 01:24:33;;;;;;;4.65;4.10;;;;;;;17.00;70.42;96379.63;5096108;28;20055;-61
2022/07/08 01:27:00;;;;;;;4.88;4.22;;;;;;;16.99;70.21;96375.28;5095985;28;20082;-62
2022/07/08 01:29:28;;;;;;;4.63;4.20;;;;;;;16.97;70.26;96371.88;5096004;28;20066;-61
2022/07/08 01:32:00;;;;;;;6.10;4.38;;;;;;;16.99;70.50;96374.44;5095839;28;20048;-61
2022/07/08 01:34:27;;;;;;;4.60;3.97;;;;;;;17.07;70.14;96379.25;5095940;28;20131;-62
2022/07/08 01:36:54;;;;;;;4.32;3.92;;;;;;;17.05;70.19;96374.88;5095798;28;20127;-61
2022/07/08 01:39:22;;;;;;;5.20;4.30;;;;;;;16.99;69.70;96377.06;5095868;28;20134;-62
2022/07/08 01:41:49;;;;;;;6.18;4.50;;;;;;;16.93;69.99;96376.53;5095833;28;20047;-61
2022/07/08 01:44:16;;;;;;;6.90;4.07;;;;;;;16.85;70.52;96376.19;5095947;28;20040;-61
2022/07/08 01:46:43;;;;;;;4.57;4.18;;;;;;;16.86;70.29;96377.88;5095715;28;20040;-62
2022/07/08 01:49:14;;;;;;;5.43;4.53;;;;;;;16.78;70.35;96369.63;5095699;28;20040;-61
2022/07/08 01:51:41;;;;;;;5.82;4.60;;;;;;;16.64;71.01;96370.53;5095549;28;20083;-62
2022/07/08 01:54:09;;;;;;;5.20;4.25;;;;;;;16.64;71.42;96366.09;5095690;28;20127;-62
2022/07/08 01:56:37;;;;;;;5.20;4.80;;;;;;;16.67;71.72;96370.31;5095532;28;20132;-61
2022/07/08 01:59:05;;;;;;;4.85;4.35;;;;;;;16.67;71.53;96368.53;5095429;28;20123;-61
2022/07/08 02:01:32;;;;;;;6.78;4.20;;;;;;;16.70;71.26;96362.19;5095429;28;20051;-61
2022/07/08 02:04:01;;;;;;;4.82;4.38;;;;;;;16.68;70.96;96364.13;5095330;28;20044;-62
2022/07/08 02:06:28;;;;;;;4.70;4.30;;;;;;;16.69;70.35;96368.44;5095379;28;20052;-62
2022/07/08 02:08:56;;;;;;;4.88;4.13;;;;;;;16.64;70.38;96374.03;5095186;28;20055;-62
2022/07/08 02:14:08;;;;;;;6.18;3.80;;;;;;;16.54;70.49;96370.28;5095261;28;20067;-62
2022/07/08 02:16:35;;;;;;;5.55;4.18;;;;;;;16.46;70.84;96370.78;5094979;28;20044;-62
2022/07/08 02:19:02;;;;;;;4.55;4.15;;;;;;;16.44;71.02;96366.56;5094974;28;20127;-62
2022/07/08 02:21:29;;;;;;;5.20;4.20;;;;;;;16.42;70.69;96375.41;5095127;28;20127;-62
2022/07/08 02:23:56;;;;;;;4.38;3.97;;;;;;;16.41;70.50;96378.16;5095027;28;20554;-62
2022/07/08 02:26:23;;;;;;;5.15;4.65;;;;;;;16.39;70.70;96380.03;5095258;28;20140;-61
2022/07/08 02:28:50;;;;;;;4.55;4.15;;;;;;;16.35;70.63;96378.56;5094912;28;20504;-62
2022/07/08 02:31:19;;;;;;;4.80;4.30;;;;;;;16.28;70.88;96388.63;5094910;28;20482;-62
2022/07/08 02:33:46;;;;;;;4.30;3.90;;;;;;;16.17;71.45;96390.16;5094848;28;20044;-62
2022/07/08 02:36:13;;;;;;;6.20;4.35;;;;;;;16.09;71.63;96389.81;5094642;28;20048;-62
2022/07/08 02:38:40;;;;;;;4.25;3.80;;;;;;;16.04;71.57;96398.00;5094648;28;20083;-62
2022/07/08 02:41:07;;;;;;;5.18;4.00;;;;;;;16.04;71.10;96399.78;5094771;28;20070;-62
2022/07/08 02:43:34;;;;;;;4.97;4.40;;;;;;;16.00;71.28;96401.78;5094664;28;20067;-62
2022/07/08 02:46:01;;;;;;;5.47;4.10;;;;;;;15.98;71.51;96392.28;5094570;28;20052;-62
2022/07/08 02:48:30;;;;;;;5.70;4.53;;;;;;;15.92;71.88;96396.97;5094458;28;20052;-62
2022/07/08 02:50:57;;;;;;;5.10;4.40;;;;;;;15.91;72.08;96397.06;5094545;28;20554;-62
2022/07/08 02:53:24;;;;;;;4.70;4.30;;;;;;;15.91;71.85;96394.41;5094338;28;20048;-62
2022/07/08 02:55:51;;;;;;;9.18;4.50;;;;;;;15.94;71.27;96404.78;5094633;28;20496;-62
2022/07/08 02:58:18;;;;;;;4.65;4.25;;;;;;;15.92;71.46;96407.50;5094395;28;20051;-62
2022/07/08 03:00:45;;;;;;;4.28;3.88;;;;;;;15.95;71.50;96408.28;5094311;28;20051;-62
2022/07/08 03:03:12;;;;;;;5.38;4.38;;;;;;;15.95;71.66;96405.63;5094262;28;20551;-62
2022/07/08 03:05:41;;;;;;;5.22;4.72;;;;;;;15.97;71.73;96412.53;5094259;28;20040;-62
2022/07/08 03:08:08;;;;;;;5.35;4.55;;;;;;;16.00;72.01;96414.97;5094165;28;20409;-62
2022/07/08 03:10:35;;;;;;;4.63;4.15;;;;;;;16.00;73.24;96419.41;5094109;28;20048;-62
2022/07/08 03:13:02;;;;;;;3.85;3.55;;;;;;;15.96;73.79;96423.16;5094035;28;20410;-62
2022/07/08 03:15:29;;;;;;;5.43;4.22;;;;;;;15.99;74.02;96428.25;5094176;28;20051;-62
2022/07/08 03:17:59;;;;;;;4.63;4.15;;;;;;;16.05;73.76;96422.63;5093842;28;20105;-62
2022/07/08 03:20:26;;;;;;;5.72;4.03;;;;;;;16.12;73.65;96425.69;5093780;28;20474;-62
2022/07/08 03:22:55;;;;;;;3.95;3.47;;;;;;;16.21;73.42;96424.28;5093930;28;20048;-62
2022/07/08 03:25:23;;;;;;;6.03;3.60;;;;;;;16.27;72.89;96424.75;5093957;28;20044;-62
2022/07/08 03:27:50;;;;;;;3.90;3.53;;;;;;;16.39;72.90;96430.19;5093831;28;20150;-62
2022/07/08 03:30:17;;;;;;;4.80;4.18;;;;;;;16.49;72.71;96422.53;5093460;28;20051;-62
2022/07/08 03:32:45;;;;;;;8.10;3.85;;;;;;;16.51;72.61;96424.13;5093712;28;20084;-62
2022/07/08 03:35:13;;;;;;;4.10;3.70;;;;;;;16.57;72.89;96422.03;5093725;28;20059;-62
2022/07/08 03:37:42;;;;;;;3.88;3.58;;;;;;;16.76;72.79;96419.03;5093694;28;20490;-62
2022/07/08 03:42:56;;;;;;;4.18;3.47;;;;;;;17.38;70.76;96424.75;5093727;28;20462;-61
2022/07/08 03:45:27;;;;;;;5.53;3.25;;;;;;;17.71;69.35;96428.69;5093504;28;20075;-62
2022/07/08 03:47:56;;;;;;;3.85;3.22;;;;;;;18.05;68.14;96426.34;5093688;28;20127;-62
2022/07/08 03:50:23;;;;;;;3.70;2.92;;;;;;;18.43;66.78;96435.16;5093557;28;20464;-62
2022/07/08 03:52:51;;;;;;;3.72;3.15;;;;;;;18.90;65.44;96431.00;5093326;28;20141;-62
2022/07/08 03:55:22;;;;;;;3.40;3.10;;;;;;;19.45;64.63;96427.84;5093336;28;20076;-62
2022/07/08 03:57:50;;;;;;;4.43;3.08;;;;;;;20.02;63.03;96424.47;5093446;28;20101;-62
2022/07/08 04:00:19;;;;;;;5.13;3.05;;;;;;;20.52;61.04;96429.38;5093300;28;20140;-63
2022/07/08 04:02:46;;;;;;;3.10;2.80;;;;;;;20.88;59.66;96421.19;5093451;28;20050;-63
2022/07/08 04:05:13;;;;;;;3.60;2.95;;;;;;;21.33;59.00;96429.97;5093329;28;20403;-63
2022/07/08 04:07:41;;;;;;;3.40;2.88;;;;;;;21.74;56.60;96430.13;5093312;28;20076;-63
2022/07/08 04:10:12;;;;;;;4.15;3.00;;;;;;;22.14;54.56;96422.34;5093295;28;20113;-63
2022/07/08 04:12:41;;;;;;;2.67;2.47;;;;;;;22.51;52.98;96420.94;5093168;28;20083;-63
2022/07/08 04:15:09;;;;;;;2.85;2.47;;;;;;;22.80;51.72;96423.69;5093210;28;20490;-63
2022/07/08 04:17:36;;;;;;;3.65;2.65;;;;;;;23.08;50.82;96421.16;5093058;28;20581;-63
2022/07/08 04:20:04;;;;;;;2.97;2.65;;;;;;;23.33;49.28;96420.75;5092923;28;20141;-64
2022/07/08 04:22:32;;;;;;;2.50;2.30;;;;;;;23.50;49.66;96418.38;5093232;28;20048;-63
2022/07/08 04:24:59;;;;;;;2.50;2.30;;;;;;;23.63;47.57;96426.06;5093119;28;20131;-63
2022/07/08 04:27:26;;;;;;;3.88;2.30;;;;;;;23.73;47.76;96427.75;5093125;28;20044;-63
2022/07/08 04:29:55;;;;;;;2.53;2.22;;;;;;;24.04;49.51;96429.31;5093042;28;20102;-63
2022/07/08 04:32:22;;;;;;;2.80;2.60;;;;;;;24.23;49.95;96428.44;5092948;28;20052;-63
2022/07/08 04:34:51;;;;;;;3.72;2.30;;;;;;;24.59;49.66;96430.38;5092933;28;20048;-63
2022/07/08 04:37:19;;;;;;;3.78;2.42;;;;;;;24.89;47.90;96434.75;5093106;28;20054;-63
2022/07/08 04:39:46;;;;;;;3.90;1.98;;;;;;;25.15;45.34;96429.47;5093026;28;20045;-63
2022/07/08 04:42:14;;;;;;;1.70;1.60;;;;;;;25.00;44.37;96434.50;5096142;28;20401;-63
2022/07/08 04:44:41;;;;;;;3.00;2.10;;;;;;;24.78;45.14;96430.41;5096951;28;20052;-63
2022/07/08 04:47:10;;;;;;;2.20;2.00;;;;;;;24.80;46.01;96429.25;5096855;28;20048;-63
2022/07/08 04:49:37;;;;;;;1.77;1.67;;;;;;;24.50;43.87;96433.09;5096890;28;20105;-63
2022/07/08 04:52:06;;;;;;;1.88;1.77;;;;;;;24.20;44.07;96430.56;5096967;28;20071;-62
2022/07/08 04:54:33;;;;;;;2.33;1.73;;;;;;;24.18;44.34;96433.41;5096710;28;20055;-63
2022/07/08 04:57:01;;;;;;;3.72;1.58;;;;;;;24.01;42.65;96437.63;5096614;28;20071;-63
2022/07/08 04:59:28;;;;;;;3.17;1.83;;;;;;;24.04;43.00;96431.16;5096694;28;20051;-63
2022/07/08 05:01:55;;;;;;;1.85;1.70;;;;;;;24.04;43.47;96437.34;5096630;28;20044;-63
2022/07/08 05:04:26;;;;;;;1.88;1.58;;;;;;;24.26;42.95;96431.81;5096607;28;20052;-63
2022/07/08 05:06:53;;;;;;;2.33;1.48;;;;;;;24.43;42.58;96435.53;5096508;28;20044;-63
2022/07/08 05:09:20;;;;;;;1.60;1.50;;;;;;;24.61;41.62;96427.53;5096574;28;20093;-63
2022/07/08 05:11:47;;;;;;;1.80;1.30;;;;;;;24.42;40.60;96431.16;5096454;28;20044;-62
2022/07/08 05:14:14;;;;;;;1.30;1.20;;;;;;;24.32;39.78;96428.56;5096197;28;20486;-63
2022/07/08 05:16:42;;;;;;;1.48;1.30;;;;;;;24.02;41.52;96428.63;5096386;28;20498;-63
2022/07/08 05:19:10;;;;;;;1.10;1.10;;;;;;;23.83;41.30;96432.19;5096046;28;20448;-62
2022/07/08 05:21:38;;;;;;;2.50;1.38;;;;;;;23.96;41.93;96437.25;5096295;28;20079;-63
2022/07/08 05:24:06;;;;;;;1.52;1.23;;;;;;;24.27;40.43;96436.16;5096243;28;20465;-62
2022/07/08 05:26:33;;;;;;;1.75;1.27;;;;;;;24.12;39.93;96433.94;5096081;28;20044;-63
2022/07/08 05:29:01;;;;;;;2.72;1.63;;;;;;;24.18;39.90;96444.09;5096187;28;20051;-63
2022/07/08 05:31:29;;;;;;;1.45;1.23;;;;;;;24.58;39.64;96447.41;5096113;28;20048;-63
2022/07/08 05:33:56;;;;;;;1.63;1.20;;;;;;;24.79;39.52;96440.09;5096033;28;20083;-63
2022/07/08 05:36:26;;;;;;;2.65;1.10;;;;;;;24.29;39.55;96436.88;5095904;28;20044;-63
2022/07/08 05:38:55;;;;;;;1.27;1.17;;;;;;;24.10;39.43;96435.91;5095943;28;20094;-62
2022/07/08 05:41:23;;;;;;;0.80;0.80;;;;;;;24.22;39.68;96437.44;5095870;28;20296;-62
2022/07/08 05:43:50;;;;;;;2.25;1.45;;;;;;;24.09;40.06;96434.25;5095893;28;20044;-63
2022/07/08 05:46:17;;;;;;;2.60;1.63;;;;;;;23.70;41.20;96436.03;5095704;28;20132;-62
2022/07/08 05:48:44;;;;;;;1.10;1.00;;;;;;;23.45;41.71;96442.81;5095732;28;20044;-62
2022/07/08 05:51:12;;;;;;;1.30;1.00;;;;;;;23.23;41.63;96445.59;5095528;28;20123;-62
2022/07/08 05:53:39;;;;;;;1.25;1.02;;;;;;;23.03;42.59;96449.25;5095596;28;20105;-62
2022/07/08 05:56:08;;;;;;;1.42;1.08;;;;;;;23.19;41.70;96444.19;5095515;28;20093;-63
2022/07/08 05:58:35;;;;;;;1.15;1.05;;;;;;;23.30;41.28;96442.38;5095509;28;20040;-62
2022/07/08 06:01:03;;;;;;;2.97;0.80;;;;;;;23.50;40.69;96445.06;5095504;28;20048;-62
2022/07/08 06:03:30;;;;;;;1.25;0.80;;;;;;;23.91;39.58;96443.00;5095538;28;20073;-62
2022/07/08 06:05:58;;;;;;;1.25;0.90;;;;;;;24.19;38.78;96436.88;5095305;28;20490;-63
2022/07/08 06:08:25;;;;;;;0.65;0.65;;;;;;;23.94;40.29;96440.06;5095354;28;20094;-62
2022/07/08 06:10:52;;;;;;;1.23;0.68;;;;;;;24.02;38.21;96435.81;5095236;28;20486;-62
2022/07/08 06:13:21;;;;;;;1.20;0.75;;;;;;;23.92;38.27;96441.16;5095057;28;20058;-62
2022/07/08 06:15:48;;;;;;;0.95;0.85;;;;;;;23.80;39.47;96448.50;5095428;28;20101;-62
2022/07/08 06:18:15;;;;;;;0.88;0.75;;;;;;;23.71;38.28;96447.53;5095274;28;20072;-62
2022/07/08 06:20:43;;;;;;;0.93;0.90;;;;;;;23.88;39.17;96440.63;5095072;28;20105;-62
2022/07/08 06:23:10;;;;;;;1.00;0.80;;;;;;;24.34;38.37;96440.78;5095177;28;20044;-62
2022/07/08 06:25:37;;;;;;;6.32;1.13;;;;;;;24.62;37.83;96445.25;5095018;28;20047;-62
2022/07/08 06:28:05;;;;;;;1.00;0.90;;;;;;;25.15;37.62;96436.66;5094978;28;20097;-62
2022/07/08 06:30:34;;;;;;;1.42;0.90;;;;;;;25.28;37.05;96436.28;5095007;28;20431;-62
2022/07/08 06:33:02;;;;;;;6.00;1.55;;;;;;;25.30;37.72;96432.44;5094818;28;20040;-62
2022/07/08 06:35:30;;;;;;;4.63;0.93;;;;;;;25.48;37.33;96428.91;5094830;28;20072;-62
2022/07/08 06:37:57;;;;;;;1.85;0.80;;;;;;;25.54;36.47;96417.56;5094687;28;20093;-63
2022/07/08 06:40:24;;;;;;;2.38;0.93;;;;;;;25.33;36.71;96431.28;5094940;28;20048;-62
2022/07/08 06:42:51;;;;;;;3.00;1.20;;;;;;;25.48;37.49;96426.22;5094717;28;20050;-62
2022/07/08 06:45:18;;;;;;;1.00;1.00;;;;;;;25.14;37.77;96425.13;5094544;28;20044;-62
2022/07/08 06:47:47;;;;;;;1.27;1.05;;;;;;;24.94;37.65;96432.44;5094598;28;20221;-62
2022/07/08 06:50:14;;;;;;;2.28;1.08;;;;;;;24.88;38.34;96419.66;5094741;28;20087;-61
2022/07/08 06:52:41;;;;;;;1.20;1.10;;;;;;;24.82;38.93;96423.75;5094638;28;20105;-62
2022/07/08 06:55:09;;;;;;;1.30;1.20;;;;;;;24.84;38.20;96421.78;5094404;28;20060;-62
2022/07/08 06:57:36;;;;;;;1.20;1.02;;;;;;;24.88;38.72;96417.00;5094347;28;20130;-62
2022/07/08 07:00:05;;;;;;;0.93;0.93;;;;;;;24.90;37.84;96420.38;5094379;28;20543;-62
2022/07/08 07:02:32;;;;;;;1.73;1.00;;;;;;;24.86;37.79;96414.44;5094343;28;20504;-62
2022/07/08 07:05:01;;;;;;;5.07;1.58;;;;;;;24.98;37.36;96417.75;5093622;28;20093;-62
2022/07/08 07:07:28;;;;;;;2.85;1.20;;;;;;;24.95;37.36;96416.22;5094270;28;20050;-62
2022/07/08 07:09:56;;;;;;;1.27;0.65;;;;;;;24.71;38.02;96419.50;5094211;28;20044;-62
2022/07/08 07:12:23;;;;;;;3.08;1.52;;;;;;;25.01;38.04;96419.31;5094092;28;20489;-62
2022/07/08 07:14:51;;;;;;;5.72;1.08;;;;;;;24.93;37.31;96412.88;5093946;28;20056;-62
2022/07/08 07:17:19;;;;;;;1.27;1.17;;;;;;;24.96;37.72;96414.41;5093907;28;20068;-62
2022/07/08 07:19:47;;;;;;;1.20;1.10;;;;;;;25.35;37.24;96421.28;5093982;28;20048;-62
2022/07/08 07:22:17;;;;;;;4.38;1.10;;;;;;;25.84;38.06;96419.97;5094025;28;20121;-62
2022/07/08 07:24:45;;;;;;;1.17;1.07;;;;;;;26.07;36.70;96425.63;5093899;28;20063;-62
2022/07/08 07:27:12;;;;;;;4.35;1.00;;;;;;;25.97;36.47;96425.75;5093761;28;20055;-62
2022/07/08 07:29:40;;;;;;;1.23;0.98;;;;;;;26.26;35.87;96413.00;5093766;28;20040;-62
2022/07/08 07:32:08;;;;;;;2.50;1.38;;;;;;;26.24;35.35;96418.53;5093751;28;20548;-61
2022/07/08 07:34:35;;;;;;;0.90;0.80;;;;;;;26.39;36.28;96417.13;5093707;28;20048;-62
2022/07/08 07:37:02;;;;;;;2.20;0.90;;;;;;;26.22;35.08;96414.34;5093684;28;20070;-61
2022/07/08 07:39:31;;;;;;;2.15;1.08;;;;;;;26.35;36.15;96413.91;5093769;28;20135;-62
2022/07/08 07:41:58;;;;;;;2.58;1.00;;;;;;;26.71;35.56;96427.13;5093564;28;20139;-62
2022/07/08 07:44:25;;;;;;;1.88;0.90;;;;;;;26.81;36.36;96424.28;5093619;28;20051;-62
2022/07/08 07:46:52;;;;;;;1.80;0.93;;;;;;;26.34;35.88;96415.72;5093549;28;20048;-62
2022/07/08 07:49:19;;;;;;;2.65;1.17;;;;;;;26.32;36.32;96416.91;5093562;28;20121;-62
2022/07/08 07:51:46;;;;;;;3.22;0.90;;;;;;;26.29;36.56;96412.72;5093403;28;20101;-62
2022/07/08 07:54:14;;;;;;;2.63;1.15;;;;;;;26.39;36.48;96414.44;5093572;28;20056;-63
2022/07/08 07:56:42;;;;;;;4.72;1.20;;;;;;;26.66;36.75;96401.78;5093570;28;20040;-63
2022/07/08 07:59:10;;;;;;;2.95;0.98;;;;;;;26.79;36.90;96407.50;5093364;28;20070;-63
2022/07/08 08:01:37;;;;;;;2.42;1.30;;;;;;;26.67;36.51;96406.16;5093364;28;20044;-63
2022/07/08 08:04:05;;;;;;;1.48;1.15;;;;;;;26.87;37.96;96404.84;5093437;28;20056;-63
2022/07/08 08:06:32;;;;;;;1.35;1.00;;;;;;;27.26;37.56;96402.56;5093263;28;20110;-63
2022/07/08 08:08:59;;;;;;;3.80;1.20;;;;;;;27.59;36.24;96394.50;5093390;28;20490;-64
2022/07/08 08:11:27;;;;;;;1.30;1.20;;;;;;;27.66;35.23;96402.72;5093248;28;20062;-64
2022/07/08 08:13:56;;;;;;;3.13;1.10;;;;;;;27.58;35.00;96400.03;5093145;28;20101;-63
2022/07/08 08:16:23;;;;;;;2.17;1.23;;;;;;;27.58;35.06;96390.13;5099509;28;20040;-64
2022/07/08 08:18:50;;;;;;;1.58;1.20;;;;;;;28.00;35.30;96390.06;5099795;28;20047;-64
2022/07/08 08:21:17;;;;;;;3.15;1.20;;;;;;;28.08;34.08;96384.66;5099910;28;20481;-64
2022/07/08 08:23:44;;;;;;;1.55;1.30;;;;;;;27.97;34.36;96390.41;5099972;28;20083;-64
2022/07/08 08:26:12;;;;;;;1.20;1.05;;;;;;;28.18;34.74;96402.44;5099796;28;20390;-63
2022/07/08 08:28:39;;;;;;;2.20;1.23;;;;;;;27.85;34.85;96398.84;5099737;28;20044;-63
2022/07/08 08:31:07;;;;;;;1.70;1.02;;;;;;;27.80;34.60;96385.09;5099864;28;20067;-63
2022/07/08 08:33:34;;;;;;;2.35;1.10;;;;;;;27.75;34.98;96401.72;5099808;28;20052;-63
2022/07/08 08:36:02;;;;;;;2.45;1.15;;;;;;;27.68;35.50;96392.66;5099778;28;20097;-63
2022/07/08 08:38:29;;;;;;;1.50;1.17;;;;;;;27.84;34.29;96383.72;5099829;28;20055;-64
2022/07/08 08:40:59;;;;;;;2.65;1.25;;;;;;;28.11;33.80;96389.69;5099749;28;20121;-64
2022/07/08 08:43:26;;;;;;;1.00;0.90;;;;;;;28.11;34.08;96392.38;5099835;28;20607;-63
2022/07/08 08:45:54;;;;;;;4.40;1.10;;;;;;;27.75;33.46;96395.50;5099731;28;20493;-63
2022/07/08 08:48:25;;;;;;;1.67;1.10;;;;;;;27.61;35.41;96388.94;5099602;28;20082;-63
2022/07/08 08:50:54;;;;;;;1.20;0.82;;;;;;;27.55;33.78;96386.94;5099247;28;20105;-64
2022/07/08 08:53:25;;;;;;;0.93;0.70;;;;;;;27.34;34.63;96389.16;5099560;28;20126;-63
2022/07/08 08:55:53;;;;;;;1.23;0.90;;;;;;;27.37;33.62;96390.66;5099475;28;20054;-64
2022/07/08 08:58:21;;;;;;;2.53;0.88;;;;;;;27.41;34.92;96391.97;5099641;28;20048;-63
2022/07/08 09:00:49;;;;;;;3.60;1.20;;;;;;;27.51;33.54;96383.75;5099519;28;20493;-63
2022/07/08 09:03:16;;;;;;;1.63;1.13;;;;;;;27.69;33.92;96393.50;5099608;28;20048;-64
2022/07/08 09:05:45;;;;;;;2.13;1.08;;;;;;;27.34;33.63;96391.84;5099586;28;20048;-63
2022/07/08 09:08:13;;;;;;;1.05;0.88;;;;;;;27.62;33.34;96385.25;5099444;28;20044;-63
2022/07/08 09:10:41;;;;;;;1.10;0.90;;;;;;;27.53;32.83;96386.25;5099526;28;20123;-63
2022/07/08 09:13:10;;;;;;;1.02;0.90;;;;;;;27.57;34.10;96379.56;5099335;28;20090;-63
2022/07/08 09:15:39;;;;;;;3.47;1.08;;;;;;;27.62;34.33;96382.56;5099230;28;20052;-63
2022/07/08 09:18:08;;;;;;;1.45;1.00;;;;;;;27.54;34.73;96382.59;5099393;28;20093;-64
2022/07/08 09:20:40;;;;;;;2.67;0.93;;;;;;;27.74;34.62;96369.66;5099225;28;20044;-64
2022/07/08 09:23:13;;;;;;;1.88;0.80;;;;;;;27.73;34.34;96374.19;5099282;28;20058;-63
2022/07/08 09:25:41;;;;;;;1.67;0.82;;;;;;;27.71;34.17;96368.16;5099323;28;20078;-63
2022/07/08 09:28:09;;;;;;;1.42;1.33;;;;;;;27.72;34.63;96369.81;5095445;28;20056;-63
2022/07/08 09:30:36;;;;;;;0.90;0.90;;;;;;;27.66;33.93;96367.00;5096039;28;20048;-64
2022/07/08 09:33:03;;;;;;;2.55;0.80;;;;;;;27.49;34.58;96362.47;5095957;28;20044;-64
2022/07/08 09:35:36;;;;;;;1.00;0.90;;;;;;;27.85;35.11;96371.13;5096006;28;20076;-64
2022/07/08 09:38:05;;;;;;;0.82;0.82;;;;;;;28.02;33.71;96365.72;5095902;28;20048;-63
2022/07/08 09:40:35;;;;;;;1.63;0.95;;;;;;;28.13;32.84;96366.19;5096017;28;20079;-64
2022/07/08 09:43:03;;;;;;;1.45;0.85;;;;;;;28.07;34.21;96366.03;5095922;28;20486;-63
2022/07/08 09:45:32;;;;;;;1.50;1.00;;;;;;;27.81;34.73;96367.94;5095958;28;20093;-64
2022/07/08 09:48:05;;;;;;;1.75;1.02;;;;;;;27.69;34.02;96356.72;5095937;28;20044;-63
2022/07/08 09:50:37;;;;;;;1.00;0.82;;;;;;;27.55;35.69;96355.56;5095808;28;20055;-64
2022/07/08 09:53:23;;;;;;;4.43;1.00;;;;;;;27.64;34.00;96356.38;5095773;28;20127;-63
2022/07/08 09:55:53;;;;;;;1.25;0.98;;;;;;;27.63;34.16;96354.69;5095531;28;20083;-64
2022/07/08 09:58:21;;;;;;;1.17;1.00;;;;;;;27.68;34.50;96355.06;5095655;28;20051;-63
2022/07/08 10:00:50;;;;;;;2.60;0.95;;;;;;;27.85;35.10;96350.50;5095523;28;20146;-63
2022/07/08 10:03:17;;;;;;;1.30;1.10;;;;;;;27.88;33.93;96352.00;5095527;28;20044;-63
2022/07/08 10:05:46;;;;;;;1.33;1.00;;;;;;;27.91;34.40;96354.34;5095504;28;20070;-63
2022/07/08 10:08:14;;;;;;;1.50;1.08;;;;;;;28.08;33.49;96347.03;5095477;28;20055;-64
2022/07/08 10:10:44;;;;;;;0.90;0.90;;;;;;;28.40;33.42;96349.78;5095413;28;20048;-64
2022/07/08 10:13:14;;;;;;;1.20;1.05;;;;;;;28.41;33.11;96348.75;5095483;28;20093;-64
2022/07/08 10:15:45;;;;;;;2.47;0.98;;;;;;;28.19;31.88;96350.34;5095214;28;20079;-64
2022/07/08 10:18:17;;;;;;;0.85;0.80;;;;;;;28.17;33.07;96334.41;5095274;28;20079;-63
2022/07/08 10:20:48;;;;;;;1.13;1.02;;;;;;;28.44;33.00;96343.03;5095029;28;20086;-64
2022/07/08 10:23:21;;;;;;;3.80;1.17;;;;;;;28.37;32.89;96347.44;5095250;28;20044;-63
2022/07/08 10:25:51;;;;;;;0.93;0.93;;;;;;;27.95;33.98;96344.06;5095117;28;20134;-63
2022/07/08 10:28:19;;;;;;;1.42;1.33;;;;;;;27.94;33.86;96343.25;5095059;28;20048;-64
2022/07/08 10:30:50;;;;;;;1.60;1.13;;;;;;;27.98;34.60;96344.56;5095017;28;20185;-63
2022/07/08 10:33:26;;;;;;;;;;;;;;;28.08;32.22;96343.53;5095211;28;20054;-63
2022/07/08 10:36:05;;;;;;;1.23;0.93;;;;;;;28.33;33.87;96340.75;5094819;28;19927;-63
2022/07/08 10:38:35;;;;;;;2.47;1.08;;;;;;;28.23;32.55;96339.06;5093552;28;20405;-63
2022/07/08 10:41:05;;;;;;;1.90;0.90;;;;;;;28.26;34.15;96327.13;5094902;28;20490;-63
2022/07/08 10:43:33;;;;;;;1.10;1.00;;;;;;;28.19;34.32;96327.00;5094710;28;20041;-63
2022/07/08 10:46:16;;;;;;;3.17;1.13;;;;;;;28.30;33.63;96327.66;5094667;28;20059;-64
2022/07/08 10:48:51;;;;;;;1.63;1.35;;;;;;;28.15;33.77;96320.31;5092944;28;20051;-63
2022/07/08 10:51:54;;;;;;;1.23;0.90;;;;;;;28.03;34.30;96314.47;5094480;28;20047;-64
2022/07/08 10:54:35;;;;;;;1.23;1.00;;;;;;;28.20;33.67;96312.53;5094144;28;20048;-64
2022/07/08 10:57:02;;;;;;;0.95;0.85;;;;;;;28.38;32.64;96312.31;5094440;28;20044;-64
2022/07/08 10:59:32;;;;;;;1.02;0.98;;;;;;;28.20;33.87;96309.84;5094563;28;20056;-63
2022/07/08 11:02:03;;;;;;;1.00;1.00;;;;;;;28.20;33.99;96304.47;5094387;28;20048;-63
2022/07/08 11:04:42;;;;;;;3.08;1.00;;;;;;;28.22;34.96;96309.69;5094307;28;20134;-63
2022/07/08 11:07:25;;;;;;;2.95;1.20;;;;;;;28.23;34.44;96296.06;5094289;28;20079;-63
2022/07/08 11:09:54;;;;;;;1.02;0.93;;;;;;;28.20;33.39;96284.84;5094145;28;20077;-64
2022/07/08 11:12:25;;;;;;;1.63;0.98;;;;;;;28.18;34.14;96295.78;5094230;28;20048;-63
2022/07/08 11:14:55;;;;;;;1.27;1.00;;;;;;;28.37;34.19;96283.75;5092856;28;20200;-64
2022/07/08 11:17:24;;;;;;;1.25;1.00;;;;;;;28.61;32.87;96286.44;5094011;28;20081;-63
2022/07/08 11:19:52;;;;;;;2.00;0.93;;;;;;;28.39;31.66;96283.59;5093800;28;20048;-63
2022/07/08 11:22:20;;;;;;;1.90;1.25;;;;;;;28.24;31.92;96254.72;5093877;28;20044;-64
2022/07/08 11:24:48;;;;;;;0.93;0.93;;;;;;;28.32;32.53;96245.81;5093833;28;20508;-63
2022/07/08 11:27:16;;;;;;;2.28;0.90;;;;;;;28.24;31.49;96257.41;5093939;28;20131;-64
2022/07/08 11:29:48;;;;;;;1.15;0.80;;;;;;;28.44;32.51;96256.16;5093932;28;20379;-64
2022/07/08 11:32:19;;;;;;;0.90;0.90;;;;;;;28.54;31.31;96264.00;5093864;28;20044;-64
2022/07/08 11:34:47;;;;;;;1.23;1.00;;;;;;;28.35;31.46;96264.28;5093928;28;20047;-64
2022/07/08 11:37:14;;;;;;;1.13;0.90;;;;;;;28.53;33.30;96262.31;5093787;28;20080;-64
2022/07/08 11:39:43;;;;;;;2.30;1.00;;;;;;;28.56;32.17;96268.16;5093732;28;20184;-64
2022/07/08 11:42:11;;;;;;;1.80;1.10;;;;;;;28.47;32.02;96250.44;5093771;28;20135;-64
2022/07/08 11:44:39;;;;;;;1.13;1.02;;;;;;;28.47;30.82;96253.94;5093675;28;20136;-64